createdAt,value
2022-09-27T00:01:34.136Z,12.00
2022-09-27T00:04:05.620Z,12.00
2022-09-27T00:06:40.636Z,10.75
2022-09-27T00:09:11.038Z,11.75
2022-09-27T00:11:43.191Z,14.00
2022-09-27T00:14:16.106Z,14.50
2022-09-27T00:16:46.977Z,16.00
2022-09-27T00:19:19.752Z,15.25
2022-09-27T00:21:50.572Z,15.25
2022-09-27T00:24:23.716Z,16.75
2022-09-27T00:26:54.216Z,15.00
2022-09-27T00:29:24.637Z,4.00
2022-09-27T00:31:55.061Z,16.50
2022-09-27T00:34:26.851Z,14.75
2022-09-27T00:36:57.394Z,16.00
2022-09-27T00:39:27.730Z,16.00
2022-09-27T00:41:58.101Z,12.25
2022-09-27T00:44:31.386Z,14.25
2022-09-27T00:47:10.478Z,15.00
2022-09-27T00:49:55.859Z,14.00
2022-09-27T00:52:29.803Z,13.75
2022-09-27T00:55:03.064Z,13.00
2022-09-27T00:57:34.702Z,14.00
2022-09-27T01:00:18.355Z,11.50
2022-09-27T01:02:52.320Z,13.75
2022-09-27T01:05:26.203Z,12.75
2022-09-27T01:07:56.867Z,12.50
2022-09-27T01:10:33.267Z,14.75
2022-09-27T01:13:09.482Z,15.50
2022-09-27T01:16:05.200Z,13.00
2022-09-27T01:18:44.725Z,10.00
2022-09-27T01:21:26.419Z,13.50
2022-09-27T01:24:14.475Z,9.50
2022-09-27T01:27:05.854Z,19.25
2022-09-27T01:30:07.578Z,17.50
2022-09-27T01:33:11.344Z,20.25
2022-09-27T01:35:51.084Z,17.00
2022-09-27T01:38:27.494Z,21.00
2022-09-27T01:41:06.713Z,19.00
2022-09-27T01:43:42.656Z,20.25
2022-09-27T01:46:15.961Z,21.25
2022-09-27T01:48:49.868Z,20.00
2022-09-27T01:51:31.972Z,20.25
2022-09-27T01:54:07.979Z,22.25
2022-09-27T01:56:47.617Z,19.25
2022-09-27T01:59:24.612Z,20.25
2022-09-27T02:01:57.917Z,20.25
2022-09-27T02:04:31.285Z,14.00
2022-09-27T02:07:04.809Z,20.25
2022-09-27T02:09:38.091Z,22.50
2022-09-27T02:12:11.760Z,20.75
2022-09-27T02:14:57.281Z,22.00
2022-09-27T02:17:43.640Z,18.50
2022-09-27T02:20:28.793Z,18.75
2022-09-27T02:23:04.709Z,13.50
2022-09-27T02:25:37.997Z,16.75
2022-09-27T02:28:11.839Z,16.00
2022-09-27T02:30:44.410Z,13.00
2022-09-27T02:33:15.742Z,15.75
2022-09-27T02:35:46.264Z,19.00
2022-09-27T02:38:17.013Z,16.75
2022-09-27T02:40:48.272Z,17.50
2022-09-27T02:43:21.611Z,18.25
2022-09-27T02:46:12.389Z,19.75
2022-09-27T02:49:05.021Z,13.25
2022-09-27T02:52:02.670Z,20.25
2022-09-27T02:54:52.337Z,18.00
2022-09-27T02:57:25.675Z,20.25
2022-09-27T02:59:58.871Z,17.00
2022-09-27T03:02:38.051Z,16.75
2022-09-27T03:05:11.611Z,14.25
2022-09-27T03:07:43.627Z,14.25
2022-09-27T03:10:23.351Z,16.00
2022-09-27T03:12:54.537Z,18.25
2022-09-27T03:15:24.861Z,17.75
2022-09-27T03:17:55.239Z,19.75
2022-09-27T03:20:25.605Z,14.50
2022-09-27T03:22:56.073Z,16.25
2022-09-27T03:25:26.500Z,17.00
2022-09-27T03:27:57.233Z,16.75
2022-09-27T03:30:27.991Z,14.25
2022-09-27T03:32:58.213Z,14.75
2022-09-27T03:35:28.729Z,13.00
2022-09-27T03:37:59.123Z,8.75
2022-09-27T03:40:29.632Z,11.00
2022-09-27T03:43:01.547Z,10.50
2022-09-27T03:45:32.989Z,11.75
2022-09-27T03:48:03.885Z,10.50
2022-09-27T03:50:34.258Z,12.50
2022-09-27T03:53:04.696Z,13.75
2022-09-27T03:55:35.631Z,13.00
2022-09-27T03:58:10.187Z,15.25
2022-09-27T04:00:40.737Z,17.25
2022-09-27T04:03:11.902Z,15.25
2022-09-27T04:05:42.923Z,13.75
2022-09-27T04:08:13.692Z,17.25
2022-09-27T04:10:45.058Z,17.25
2022-09-27T04:13:15.522Z,12.00
2022-09-27T04:15:51.407Z,15.25
2022-09-27T04:18:19.114Z,13.25
2022-09-27T04:20:49.950Z,15.50
2022-09-27T04:23:20.213Z,14.75
2022-09-27T04:25:51.241Z,15.75
2022-09-27T04:28:21.763Z,14.00
2022-09-27T04:30:52.274Z,13.25
2022-09-27T04:33:23.147Z,15.25
2022-09-27T04:35:53.604Z,14.50
2022-09-27T04:38:24.522Z,16.25
2022-09-27T04:40:54.965Z,15.75
2022-09-27T04:43:25.631Z,17.75
2022-09-27T04:45:56.371Z,15.25
2022-09-27T04:48:26.869Z,15.00
2022-09-27T04:50:59.516Z,15.50
2022-09-27T04:53:30.831Z,16.25
2022-09-27T04:56:01.851Z,17.25
2022-09-27T04:58:32.990Z,17.50
2022-09-27T05:01:04.386Z,15.50
2022-09-27T05:03:38.803Z,15.50
2022-09-27T05:06:09.039Z,15.25
2022-09-27T05:08:39.846Z,14.25
2022-09-27T05:11:10.293Z,15.50
2022-09-27T05:13:42.685Z,15.00
2022-09-27T05:16:13.872Z,16.50
2022-09-27T05:18:45.401Z,17.50
2022-09-27T05:21:17.642Z,12.50
2022-09-27T05:23:48.124Z,15.75
2022-09-27T05:26:18.747Z,16.00
2022-09-27T05:28:49.167Z,18.25
2022-09-27T05:31:19.633Z,17.50
2022-09-27T05:33:50.189Z,14.50
2022-09-27T05:36:22.929Z,18.25
2022-09-27T05:38:54.127Z,16.00
2022-09-27T05:41:24.623Z,14.00
2022-09-27T05:44:04.336Z,13.75
2022-09-27T05:46:37.505Z,17.00
2022-09-27T05:51:47.438Z,15.50
2022-09-27T05:54:20.540Z,19.25
2022-09-27T05:57:03.457Z,16.00
2022-09-27T05:59:36.306Z,18.25
2022-09-27T06:02:12.585Z,18.25
2022-09-27T06:04:44.983Z,18.50
2022-09-27T06:07:15.414Z,17.25
2022-09-27T06:09:47.013Z,18.75
2022-09-27T06:12:24.164Z,15.25
2022-09-27T06:14:56.896Z,14.00
2022-09-27T06:17:28.348Z,18.75
2022-09-27T06:20:03.407Z,16.00
2022-09-27T06:22:34.430Z,17.25
2022-09-27T06:25:05.926Z,16.25
2022-09-27T06:27:37.887Z,18.75
2022-09-27T06:30:11.373Z,12.25
2022-09-27T06:32:42.503Z,17.75
2022-09-27T06:35:12.810Z,13.00
2022-09-27T06:37:43.930Z,17.25
2022-09-27T06:40:14.422Z,17.50
2022-09-27T06:42:51.908Z,23.00
2022-09-27T06:45:22.194Z,23.25
2022-09-27T06:47:52.596Z,19.50
2022-09-27T06:50:23.047Z,18.25
2022-09-27T06:52:53.430Z,17.25
2022-09-27T06:55:23.772Z,17.75
2022-09-27T06:58:00.561Z,17.00
2022-09-27T07:00:31.295Z,14.40
2022-09-27T07:03:01.618Z,18.50
2022-09-27T07:05:32.220Z,11.50
2022-09-27T07:08:02.913Z,17.40
2022-09-27T07:10:38.273Z,17.00
2022-09-27T07:13:13.744Z,16.25
2022-09-27T07:15:47.240Z,17.25
2022-09-27T07:18:28.367Z,18.50
2022-09-27T07:21:03.169Z,15.75
2022-09-27T07:23:34.043Z,16.80
2022-09-27T07:26:05.800Z,18.00
2022-09-27T07:28:36.445Z,16.50
2022-09-27T07:31:07.224Z,13.75
2022-09-27T07:33:43.016Z,19.25
2022-09-27T07:36:13.092Z,16.25
2022-09-27T07:38:43.684Z,19.75
2022-09-27T07:41:18.329Z,19.75
2022-09-27T07:43:48.785Z,18.00
2022-09-27T07:46:19.480Z,20.00
2022-09-27T07:48:53.135Z,20.00
2022-09-27T07:51:23.918Z,19.50
2022-09-27T07:53:54.407Z,18.00
2022-09-27T07:56:28.184Z,18.00
2022-09-27T07:58:59.006Z,20.00
2022-09-27T08:01:29.608Z,19.25
2022-09-27T08:04:00.263Z,17.25
2022-09-27T08:06:30.758Z,17.25
2022-09-27T08:09:01.401Z,16.40
2022-09-27T08:11:32.181Z,20.00
2022-09-27T08:14:04.621Z,16.50
2022-09-27T08:16:38.443Z,18.75
2022-09-27T08:19:12.324Z,20.00
2022-09-27T08:21:42.930Z,18.40
2022-09-27T08:24:16.125Z,21.00
2022-09-27T08:26:48.751Z,16.50
2022-09-27T08:29:19.084Z,19.00
2022-09-27T08:31:51.621Z,18.25
2022-09-27T08:34:22.252Z,20.00
2022-09-27T08:36:52.713Z,19.00
2022-09-27T08:39:26.007Z,19.60
2022-09-27T08:42:08.444Z,20.00
2022-09-27T08:44:44.672Z,18.50
2022-09-27T08:47:37.668Z,21.50
2022-09-27T08:50:10.920Z,16.00
2022-09-27T08:52:55.164Z,22.75
2022-09-27T08:56:04.666Z,22.00
2022-09-27T08:58:46.724Z,22.00
2022-09-27T09:01:19.489Z,22.00
2022-09-27T09:03:59.042Z,21.25
2022-09-27T09:09:36.611Z,21.00
2022-09-27T09:12:34.428Z,22.75
2022-09-27T09:15:32.221Z,18.50
2022-09-27T09:18:29.056Z,19.00
2022-09-27T09:21:37.018Z,22.50
2022-09-27T09:24:12.796Z,22.00
2022-09-27T09:26:52.939Z,22.00
2022-09-27T09:29:37.987Z,22.25
2022-09-27T09:32:29.519Z,21.50
2022-09-27T09:35:02.790Z,21.00
2022-09-27T09:37:39.292Z,22.00
2022-09-27T09:40:18.147Z,21.50
2022-09-27T09:42:54.317Z,22.00
2022-09-27T09:45:30.239Z,20.00
2022-09-27T09:48:25.082Z,21.80
2022-09-27T09:50:58.544Z,21.75
2022-09-27T09:53:57.486Z,18.00
2022-09-27T09:56:43.269Z,19.80
2022-09-27T09:59:38.709Z,22.25
2022-09-27T10:02:29.656Z,22.00
2022-09-27T10:05:07.708Z,21.25
2022-09-27T10:07:39.195Z,22.75
2022-09-27T10:12:51.473Z,25.25
2022-09-27T10:15:24.759Z,24.00
2022-09-27T10:17:58.508Z,23.00
2022-09-27T10:20:38.056Z,22.50
2022-09-27T10:23:16.846Z,20.25
2022-09-27T10:25:53.453Z,23.25
2022-09-27T10:31:33.087Z,22.00
2022-09-27T10:34:05.298Z,21.25
2022-09-27T10:36:37.437Z,23.20
2022-09-27T10:39:09.374Z,22.50
2022-09-27T10:41:42.633Z,21.00
2022-09-27T10:44:24.588Z,20.40
2022-09-27T10:46:58.880Z,22.00
2022-09-27T10:49:38.661Z,23.00
2022-09-27T10:52:39.016Z,21.40
2022-09-27T10:55:14.912Z,21.00
2022-09-27T10:57:50.497Z,21.80
2022-09-27T11:00:23.599Z,22.00
2022-09-27T11:02:59.741Z,22.60
2022-09-27T11:05:36.090Z,21.80
2022-09-27T11:08:24.614Z,20.25
2022-09-27T11:11:17.407Z,23.25
2022-09-27T11:14:07.185Z,25.25
2022-09-27T11:16:46.969Z,25.00
2022-09-27T11:19:37.245Z,23.25
2022-09-27T11:22:31.785Z,22.00
2022-09-27T11:25:19.902Z,22.50
2022-09-27T11:28:01.793Z,23.00
2022-09-27T11:30:54.363Z,21.60
2022-09-27T11:33:46.823Z,24.50
2022-09-27T11:36:25.812Z,32.00
2022-09-27T11:39:08.517Z,24.50
2022-09-27T11:41:41.841Z,21.75
2022-09-27T11:44:27.138Z,21.00
2022-09-27T11:47:26.605Z,21.25
2022-09-27T11:50:16.381Z,20.75
2022-09-27T11:53:00.785Z,22.40
2022-09-27T11:55:50.806Z,22.60
2022-09-27T11:58:55.300Z,25.20
2022-09-27T12:01:46.010Z,22.00
2022-09-27T12:08:21.977Z,23.00
2022-09-27T12:11:15.000Z,23.00
2022-09-27T12:16:57.872Z,22.00
2022-09-27T12:19:37.018Z,23.00
2022-09-27T12:22:22.741Z,22.00
2022-09-27T12:24:53.028Z,25.00
2022-09-27T12:27:35.164Z,21.60
2022-09-27T12:30:06.586Z,22.80
2022-09-27T12:32:40.007Z,21.80
2022-09-27T12:35:31.245Z,21.00
2022-09-27T12:38:05.219Z,19.00
2022-09-27T12:40:42.528Z,23.00
2022-09-27T12:43:27.985Z,22.20
2022-09-27T12:46:26.859Z,22.00
2022-09-27T12:49:14.695Z,10.25
2022-09-27T12:52:06.006Z,19.50
2022-09-27T12:55:04.382Z,21.60
2022-09-27T12:57:58.890Z,21.80
2022-09-27T13:00:34.752Z,21.00
2022-09-27T13:03:26.640Z,20.50
2022-09-27T13:06:16.252Z,15.75
2022-09-27T13:09:07.470Z,20.40
2022-09-27T13:11:46.888Z,22.20
2022-09-27T13:14:40.501Z,22.50
2022-09-27T13:19:58.815Z,21.75
2022-09-27T13:22:38.042Z,21.80
2022-09-27T13:25:29.257Z,19.60
2022-09-27T13:27:59.630Z,22.00
2022-09-27T13:30:32.974Z,21.50
2022-09-27T13:33:18.196Z,21.50
2022-09-27T13:36:26.093Z,21.40
2022-09-27T13:39:05.028Z,20.80
2022-09-27T13:41:50.820Z,22.25
2022-09-27T13:44:36.087Z,15.00
2022-09-27T13:47:27.442Z,20.60
2022-09-27T13:50:24.611Z,21.00
2022-09-27T13:53:06.569Z,22.00
2022-09-27T13:55:46.099Z,23.00
2022-09-27T13:58:38.771Z,22.50
2022-09-27T14:01:30.269Z,22.50
2022-09-27T14:04:25.108Z,21.00
2022-09-27T14:07:01.641Z,21.00
2022-09-27T14:09:41.552Z,23.25
2022-09-27T14:12:14.897Z,19.75
2022-09-27T14:14:46.112Z,21.75
2022-09-27T14:17:16.842Z,23.75
2022-09-27T14:19:47.190Z,20.75
2022-09-27T14:22:23.338Z,21.25
2022-09-27T14:24:55.770Z,21.25
2022-09-27T14:27:30.091Z,24.25
2022-09-27T14:30:08.541Z,24.25
2022-09-27T14:32:49.142Z,25.25
2022-09-27T14:35:22.208Z,26.75
2022-09-27T14:37:56.667Z,22.50
2022-09-27T14:40:28.286Z,24.25
2022-09-27T14:43:00.383Z,24.75
2022-09-27T14:45:39.970Z,26.00
2022-09-27T14:48:31.695Z,26.00
2022-09-27T14:51:06.297Z,26.75
2022-09-27T14:53:58.158Z,26.75
2022-09-27T14:56:37.237Z,24.25
2022-09-27T14:59:19.585Z,26.50
2022-09-27T15:01:52.030Z,25.00
2022-09-27T15:04:25.244Z,24.25
2022-09-27T15:06:59.885Z,26.00
2022-09-27T15:09:33.473Z,25.75
2022-09-27T15:12:05.575Z,24.75
2022-09-27T15:14:36.996Z,25.00
2022-09-27T15:17:09.368Z,24.00
2022-09-27T15:19:40.175Z,26.00
2022-09-27T15:22:25.293Z,27.75
2022-09-27T15:24:58.665Z,24.75
2022-09-27T15:27:29.144Z,27.25
2022-09-27T15:30:00.210Z,26.00
2022-09-27T15:32:30.884Z,27.25
2022-09-27T15:35:08.204Z,26.75
2022-09-27T15:37:40.753Z,26.50
2022-09-27T15:40:20.363Z,27.00
2022-09-27T15:43:02.798Z,28.00
2022-09-27T15:45:35.652Z,20.00
2022-09-27T15:48:17.969Z,26.75
2022-09-27T15:50:50.306Z,28.00
2022-09-27T15:53:35.978Z,27.75
2022-09-27T15:56:07.115Z,27.75
2022-09-27T15:58:37.960Z,28.00
2022-09-27T16:01:09.953Z,26.25
2022-09-27T16:03:41.908Z,23.75
2022-09-27T16:06:14.544Z,25.75
2022-09-27T16:08:47.297Z,26.75
2022-09-27T16:11:18.361Z,24.00
2022-09-27T16:13:49.062Z,26.75
2022-09-27T16:16:22.029Z,27.25
2022-09-27T16:18:52.639Z,28.00
2022-09-27T16:21:24.295Z,26.25
2022-09-27T16:23:54.755Z,27.00
2022-09-27T16:26:25.090Z,26.00
2022-09-27T16:28:55.607Z,27.00
2022-09-27T16:31:26.116Z,27.50
2022-09-27T16:33:58.062Z,31.00
2022-09-27T16:36:28.373Z,29.00
2022-09-27T16:39:00.395Z,28.00
2022-09-27T16:41:31.336Z,28.25
2022-09-27T16:44:07.074Z,28.00
2022-09-27T16:46:42.956Z,28.00
2022-09-27T16:49:16.042Z,29.00
2022-09-27T16:51:48.717Z,27.00
2022-09-27T16:54:22.754Z,28.25
2022-09-27T16:56:55.235Z,27.75
2022-09-27T16:59:25.810Z,29.00
2022-09-27T17:02:00.890Z,27.50
2022-09-27T17:04:33.038Z,29.75
2022-09-27T17:07:04.244Z,28.25
2022-09-27T17:09:39.968Z,24.50
2022-09-27T17:12:16.185Z,27.00
2022-09-27T17:14:47.465Z,28.00
2022-09-27T17:17:17.918Z,25.00
2022-09-27T17:19:48.409Z,27.00
2022-09-27T17:22:19.187Z,28.25
2022-09-27T17:24:50.693Z,26.00
2022-09-27T17:27:25.183Z,27.50
2022-09-27T17:29:52.951Z,28.00
2022-09-27T17:32:23.530Z,26.75
2022-09-27T17:34:54.227Z,28.00
2022-09-27T17:37:25.858Z,23.75
2022-09-27T17:39:56.219Z,25.75
2022-09-27T17:42:26.591Z,28.00
2022-09-27T17:44:57.029Z,26.00
2022-09-27T17:47:28.682Z,26.25
2022-09-27T17:49:59.363Z,26.00
2022-09-27T17:52:31.464Z,26.25
2022-09-27T17:55:06.030Z,24.75
2022-09-27T17:57:37.510Z,28.00
2022-09-27T18:00:09.612Z,26.25
2022-09-27T18:02:41.214Z,27.00
2022-09-27T18:05:12.522Z,25.75
2022-09-27T18:07:44.683Z,27.00
2022-09-27T18:10:15.490Z,26.75
2022-09-27T18:12:48.127Z,28.50
2022-09-27T18:15:19.831Z,26.25
2022-09-27T18:17:55.805Z,27.00
2022-09-27T18:20:23.727Z,24.75
2022-09-27T18:22:54.465Z,30.50
2022-09-27T18:25:25.652Z,28.75
2022-09-27T18:27:56.286Z,29.25
2022-09-27T18:30:27.580Z,34.50
2022-09-27T18:32:58.898Z,31.00
2022-09-27T18:35:29.520Z,36.00
2022-09-27T18:38:00.586Z,34.50
2022-09-27T18:40:51.961Z,37.75
2022-09-27T18:43:12.910Z,39.50
2022-09-27T18:45:47.977Z,67.00
2022-09-27T18:48:19.354Z,63.25
2022-09-27T18:50:54.558Z,61.50
2022-09-27T18:53:25.374Z,70.75
2022-09-27T18:55:55.738Z,71.50
2022-09-27T18:58:26.309Z,74.00
2022-09-27T19:01:03.625Z,74.25
2022-09-27T19:03:35.251Z,59.00
2022-09-27T19:06:08.934Z,50.00
2022-09-27T19:08:39.843Z,58.00
2022-09-27T19:11:12.981Z,57.25
2022-09-27T19:13:52.991Z,51.00
2022-09-27T19:16:26.669Z,48.75
2022-09-27T19:18:57.971Z,46.75
2022-09-27T19:21:29.883Z,40.75
2022-09-27T19:24:00.558Z,33.00
2022-09-27T19:26:31.088Z,33.25
2022-09-27T19:29:02.358Z,33.25
2022-09-27T19:31:33.047Z,31.00
2022-09-27T19:34:04.342Z,33.00
2022-09-27T19:36:34.971Z,31.25
2022-09-27T19:39:05.428Z,32.50
2022-09-27T19:41:35.945Z,33.00
2022-09-27T19:44:06.451Z,31.75
2022-09-27T19:46:36.847Z,41.00
2022-09-27T19:49:07.671Z,37.75
2022-09-27T19:51:38.188Z,35.00
2022-09-27T19:54:10.277Z,33.25
2022-09-27T19:56:41.244Z,31.50
2022-09-27T19:59:12.034Z,31.00
2022-09-27T20:01:42.648Z,32.50
2022-09-27T20:04:13.547Z,31.50
2022-09-27T20:06:47.111Z,28.25
2022-09-27T20:09:22.058Z,29.00
2022-09-27T20:11:52.606Z,28.00
2022-09-27T20:14:26.360Z,27.00
2022-09-27T20:16:57.873Z,28.00
2022-09-27T20:19:28.365Z,30.25
2022-09-27T20:22:00.253Z,27.50
2022-09-27T20:24:32.483Z,27.25
2022-09-27T20:27:03.003Z,23.00
2022-09-27T20:29:33.655Z,27.25
2022-09-27T20:32:26.340Z,27.75
2022-09-27T20:34:37.100Z,27.25
2022-09-27T20:37:14.145Z,28.75
2022-09-27T20:39:47.540Z,28.50
2022-09-27T20:42:19.868Z,28.00
2022-09-27T20:44:54.539Z,22.50
2022-09-27T20:47:25.999Z,26.50
2022-09-27T20:49:58.421Z,27.50
2022-09-27T20:52:28.964Z,28.50
2022-09-27T20:54:59.469Z,25.75
2022-09-27T20:57:46.649Z,27.50
2022-09-27T21:00:11.584Z,30.50
2022-09-27T21:02:38.884Z,29.25
2022-09-27T21:05:13.096Z,29.00
2022-09-27T21:07:43.549Z,29.50
2022-09-27T21:10:14.593Z,29.00
2022-09-27T21:12:45.066Z,23.50
2022-09-27T21:15:16.625Z,29.25
2022-09-27T21:17:47.390Z,29.00
2022-09-27T21:20:20.760Z,29.50
2022-09-27T21:22:51.341Z,30.50
2022-09-27T21:25:21.853Z,26.75
2022-09-27T21:27:56.537Z,28.00
2022-09-27T21:30:34.278Z,30.25
2022-09-27T21:33:06.473Z,29.25
2022-09-27T21:35:37.143Z,31.00
2022-09-27T21:38:08.392Z,30.00
2022-09-27T21:40:40.204Z,28.75
2022-09-27T21:43:11.019Z,23.75
2022-09-27T21:45:41.341Z,28.25
2022-09-27T21:48:11.867Z,28.00
2022-09-27T21:50:42.340Z,27.50
2022-09-27T21:53:12.800Z,27.00
2022-09-27T21:55:43.212Z,29.00
2022-09-27T21:58:13.899Z,28.00
2022-09-27T22:00:44.208Z,27.50
2022-09-27T22:03:14.800Z,27.50
2022-09-27T22:05:49.836Z,28.25
2022-09-27T22:08:20.209Z,28.25
2022-09-27T22:10:51.880Z,28.00
2022-09-27T22:13:22.582Z,28.25
2022-09-27T22:15:54.071Z,28.00
2022-09-27T22:18:24.633Z,28.00
2022-09-27T22:21:03.969Z,27.75
2022-09-27T22:23:34.886Z,27.75
2022-09-27T22:26:14.176Z,29.00
2022-09-27T22:28:45.643Z,28.00
2022-09-27T22:31:17.306Z,28.00
2022-09-27T22:33:53.284Z,29.00
2022-09-27T22:36:24.396Z,28.00
2022-09-27T22:38:56.421Z,28.00
2022-09-27T22:41:27.226Z,27.00
2022-09-27T22:43:57.934Z,23.00
2022-09-27T22:46:31.049Z,28.00
2022-09-27T22:49:03.914Z,28.00
2022-09-27T22:51:37.342Z,28.00
2022-09-27T22:54:07.803Z,27.50
2022-09-27T22:56:39.709Z,28.00
2022-09-27T22:59:10.027Z,27.50
2022-09-27T23:01:40.424Z,23.50
2022-09-27T23:04:10.768Z,27.75
2022-09-27T23:06:41.132Z,28.00
2022-09-27T23:09:12.512Z,28.25
2022-09-27T23:11:43.934Z,28.00
2022-09-27T23:14:14.258Z,28.75
2022-09-27T23:16:44.703Z,28.00
2022-09-27T23:19:15.089Z,28.00
2022-09-27T23:21:45.536Z,28.00
2022-09-27T23:24:15.820Z,29.00
2022-09-27T23:26:46.291Z,27.75
2022-09-27T23:29:18.025Z,26.00
2022-09-27T23:31:49.411Z,27.00
2022-09-27T23:34:20.150Z,24.50
2022-09-27T23:36:50.503Z,28.25
2022-09-27T23:39:21.432Z,26.00
2022-09-27T23:41:51.945Z,25.25
2022-09-27T23:44:22.389Z,26.75
2022-09-27T23:46:55.493Z,26.25
2022-09-27T23:49:26.160Z,26.00
2022-09-27T23:51:56.569Z,25.75
2022-09-27T23:54:27.726Z,26.25
2022-09-27T23:56:58.972Z,26.00
2022-09-27T23:59:29.273Z,27.50
